sensor_id;sensor_type;location;lat;lon;timestamp;P1;durP1;ratioP1;P2;durP2;ratioP2
7675;SDS011;3880;51.464;-2.566;2022-11-09T00:00:11;13.87;;;3.90;;
7675;SDS011;3880;51.464;-2.566;2022-11-09T00:02:42;18.57;;;4.37;;
7675;SDS011;3880;51.464;-2.566;2022-11-09T00:05:09;16.70;;;3.80;;
7675;SDS011;3880;51.464;-2.566;2022-11-09T00:07:37;11.07;;;3.47;;
7675;SDS011;3880;51.464;-2.566;2022-11-09T00:10:04;21.50;;;4.47;;
7675;SDS011;3880;51.464;-2.566;2022-11-09T00:12:31;12.13;;;3.17;;
7675;SDS011;3880;51.464;-2.566;2022-11-09T00:14:58;14.67;;;3.03;;
7675;SDS011;3880;51.464;-2.566;2022-11-09T00:17:26;21.20;;;4.50;;
7675;SDS011;3880;51.464;-2.566;2022-11-09T00:19:54;16.77;;;3.17;;
7675;SDS011;3880;51.464;-2.566;2022-11-09T00:22:21;18.63;;;4.13;;
7675;SDS011;3880;51.464;-2.566;2022-11-09T00:24:49;18.83;;;3.83;;
7675;SDS011;3880;51.464;-2.566;2022-11-09T00:27:15;18.83;;;3.70;;
7675;SDS011;3880;51.464;-2.566;2022-11-09T00:29:42;10.57;;;3.27;;
7675;SDS011;3880;51.464;-2.566;2022-11-09T00:32:09;20.33;;;3.73;;
7675;SDS011;3880;51.464;-2.566;2022-11-09T00:34:36;15.97;;;4.57;;
7675;SDS011;3880;51.464;-2.566;2022-11-09T00:37:05;18.83;;;4.07;;
7675;SDS011;3880;51.464;-2.566;2022-11-09T00:39:32;21.30;;;4.20;;
7675;SDS011;3880;51.464;-2.566;2022-11-09T00:41:59;17.20;;;3.30;;
7675;SDS011;3880;51.464;-2.566;2022-11-09T00:44:26;17.33;;;4.53;;
7675;SDS011;3880;51.464;-2.566;2022-11-09T00:46:53;11.33;;;3.20;;
7675;SDS011;3880;51.464;-2.566;2022-11-09T00:49:20;18.40;;;4.23;;
7675;SDS011;3880;51.464;-2.566;2022-11-09T00:51:47;12.40;;;4.47;;
7675;SDS011;3880;51.464;-2.566;2022-11-09T00:54:16;8.67;;;3.43;;
7675;SDS011;3880;51.464;-2.566;2022-11-09T00:56:43;18.37;;;3.87;;
7675;SDS011;3880;51.464;-2.566;2022-11-09T00:59:13;16.93;;;3.33;;
7675;SDS011;3880;51.464;-2.566;2022-11-09T01:01:40;19.33;;;4.50;;
7675;SDS011;3880;51.464;-2.566;2022-11-09T01:04:07;10.10;;;2.37;;
7675;SDS011;3880;51.464;-2.566;2022-11-09T01:06:34;12.20;;;3.17;;
7675;SDS011;3880;51.464;-2.566;2022-11-09T01:09:01;17.57;;;2.83;;
7675;SDS011;3880;51.464;-2.566;2022-11-09T01:11:29;28.10;;;5.90;;
7675;SDS011;3880;51.464;-2.566;2022-11-09T01:13:57;15.50;;;3.43;;
7675;SDS011;3880;51.464;-2.566;2022-11-09T01:16:25;18.10;;;4.73;;
7675;SDS011;3880;51.464;-2.566;2022-11-09T01:18:52;21.43;;;5.23;;
7675;SDS011;3880;51.464;-2.566;2022-11-09T01:21:20;23.60;;;4.33;;
7675;SDS011;3880;51.464;-2.566;2022-11-09T01:23:47;16.77;;;3.67;;
7675;SDS011;3880;51.464;-2.566;2022-11-09T01:26:14;18.97;;;3.60;;
7675;SDS011;3880;51.464;-2.566;2022-11-09T01:28:43;22.27;;;4.33;;
7675;SDS011;3880;51.464;-2.566;2022-11-09T01:31:11;15.13;;;3.93;;
7675;SDS011;3880;51.464;-2.566;2022-11-09T01:33:40;16.13;;;3.73;;
7675;SDS011;3880;51.464;-2.566;2022-11-09T01:36:08;7.13;;;2.67;;
7675;SDS011;3880;51.464;-2.566;2022-11-09T01:38:36;16.77;;;2.80;;
7675;SDS011;3880;51.464;-2.566;2022-11-09T01:41:04;16.87;;;3.03;;
7675;SDS011;3880;51.464;-2.566;2022-11-09T01:43:32;19.60;;;4.57;;
7675;SDS011;3880;51.464;-2.566;2022-11-09T01:46:03;15.70;;;4.07;;
7675;SDS011;3880;51.464;-2.566;2022-11-09T01:48:37;21.17;;;3.40;;
7675;SDS011;3880;51.464;-2.566;2022-11-09T01:51:09;26.03;;;4.13;;
7675;SDS011;3880;51.464;-2.566;2022-11-09T01:53:40;13.63;;;3.10;;
7675;SDS011;3880;51.464;-2.566;2022-11-09T01:56:10;16.60;;;3.87;;
7675;SDS011;3880;51.464;-2.566;2022-11-09T01:58:40;10.57;;;3.40;;
7675;SDS011;3880;51.464;-2.566;2022-11-09T02:01:12;13.63;;;2.87;;
7675;SDS011;3880;51.464;-2.566;2022-11-09T02:03:41;16.10;;;3.80;;
7675;SDS011;3880;51.464;-2.566;2022-11-09T02:06:12;22.07;;;5.20;;
7675;SDS011;3880;51.464;-2.566;2022-11-09T02:08:42;16.33;;;3.40;;
7675;SDS011;3880;51.464;-2.566;2022-11-09T02:11:11;20.27;;;4.00;;
7675;SDS011;3880;51.464;-2.566;2022-11-09T02:13:40;13.07;;;3.57;;
7675;SDS011;3880;51.464;-2.566;2022-11-09T02:16:10;14.20;;;3.67;;
7675;SDS011;3880;51.464;-2.566;2022-11-09T02:18:40;17.67;;;3.97;;
7675;SDS011;3880;51.464;-2.566;2022-11-09T02:21:14;10.73;;;2.40;;
7675;SDS011;3880;51.464;-2.566;2022-11-09T02:23:41;19.90;;;4.70;;
7675;SDS011;3880;51.464;-2.566;2022-11-09T02:26:10;25.60;;;4.67;;
7675;SDS011;3880;51.464;-2.566;2022-11-09T02:28:40;18.10;;;4.77;;
7675;SDS011;3880;51.464;-2.566;2022-11-09T02:31:10;22.70;;;3.70;;
7675;SDS011;3880;51.464;-2.566;2022-11-09T02:33:43;11.90;;;3.90;;
7675;SDS011;3880;51.464;-2.566;2022-11-09T02:36:20;11.73;;;2.87;;
7675;SDS011;3880;51.464;-2.566;2022-11-09T02:38:48;14.33;;;3.57;;
7675;SDS011;3880;51.464;-2.566;2022-11-09T02:41:16;12.73;;;3.13;;
7675;SDS011;3880;51.464;-2.566;2022-11-09T02:43:45;13.00;;;2.90;;
7675;SDS011;3880;51.464;-2.566;2022-11-09T02:46:12;15.60;;;3.20;;
7675;SDS011;3880;51.464;-2.566;2022-11-09T02:48:46;12.93;;;2.80;;
7675;SDS011;3880;51.464;-2.566;2022-11-09T02:51:13;13.90;;;2.17;;
7675;SDS011;3880;51.464;-2.566;2022-11-09T02:53:41;15.13;;;2.80;;
7675;SDS011;3880;51.464;-2.566;2022-11-09T02:56:08;4.10;;;2.40;;
7675;SDS011;3880;51.464;-2.566;2022-11-09T02:58:35;17.97;;;3.13;;
7675;SDS011;3880;51.464;-2.566;2022-11-09T03:01:02;9.90;;;2.13;;
7675;SDS011;3880;51.464;-2.566;2022-11-09T03:03:29;8.10;;;2.47;;
7675;SDS011;3880;51.464;-2.566;2022-11-09T03:05:56;8.83;;;2.00;;
7675;SDS011;3880;51.464;-2.566;2022-11-09T03:08:23;4.97;;;2.00;;
7675;SDS011;3880;51.464;-2.566;2022-11-09T03:10:52;3.17;;;1.57;;
7675;SDS011;3880;51.464;-2.566;2022-11-09T03:13:18;11.20;;;2.93;;
7675;SDS011;3880;51.464;-2.566;2022-11-09T03:15:46;4.50;;;2.37;;
7675;SDS011;3880;51.464;-2.566;2022-11-09T03:18:13;8.93;;;1.90;;
7675;SDS011;3880;51.464;-2.566;2022-11-09T03:20:39;8.67;;;2.20;;
7675;SDS011;3880;51.464;-2.566;2022-11-09T03:23:06;5.97;;;1.80;;
7675;SDS011;3880;51.464;-2.566;2022-11-09T03:25:35;8.43;;;2.00;;
7675;SDS011;3880;51.464;-2.566;2022-11-09T03:28:04;9.63;;;2.13;;
7675;SDS011;3880;51.464;-2.566;2022-11-09T03:30:32;8.40;;;2.00;;
7675;SDS011;3880;51.464;-2.566;2022-11-09T03:33:00;3.80;;;1.80;;
7675;SDS011;3880;51.464;-2.566;2022-11-09T03:35:33;9.43;;;2.73;;
7675;SDS011;3880;51.464;-2.566;2022-11-09T03:38:01;5.93;;;1.93;;
7675;SDS011;3880;51.464;-2.566;2022-11-09T03:40:28;5.57;;;2.30;;
7675;SDS011;3880;51.464;-2.566;2022-11-09T03:42:56;6.63;;;1.80;;
7675;SDS011;3880;51.464;-2.566;2022-11-09T03:45:24;6.93;;;1.70;;
7675;SDS011;3880;51.464;-2.566;2022-11-09T03:47:52;6.47;;;2.00;;
7675;SDS011;3880;51.464;-2.566;2022-11-09T03:50:21;7.27;;;1.77;;
7675;SDS011;3880;51.464;-2.566;2022-11-09T03:52:48;6.00;;;2.00;;
7675;SDS011;3880;51.464;-2.566;2022-11-09T03:55:15;3.90;;;1.50;;
7675;SDS011;3880;51.464;-2.566;2022-11-09T03:57:43;12.40;;;2.37;;
7675;SDS011;3880;51.464;-2.566;2022-11-09T04:00:11;9.00;;;2.07;;
7675;SDS011;3880;51.464;-2.566;2022-11-09T04:02:41;5.97;;;1.97;;
7675;SDS011;3880;51.464;-2.566;2022-11-09T04:05:09;6.53;;;2.07;;
7675;SDS011;3880;51.464;-2.566;2022-11-09T04:07:36;7.20;;;1.60;;
7675;SDS011;3880;51.464;-2.566;2022-11-09T04:10:04;3.20;;;1.53;;
7675;SDS011;3880;51.464;-2.566;2022-11-09T04:12:32;8.07;;;2.20;;
7675;SDS011;3880;51.464;-2.566;2022-11-09T04:14:59;9.47;;;2.77;;
7675;SDS011;3880;51.464;-2.566;2022-11-09T04:17:26;3.50;;;1.60;;
7675;SDS011;3880;51.464;-2.566;2022-11-09T04:19:55;2.10;;;1.10;;
7675;SDS011;3880;51.464;-2.566;2022-11-09T04:22:22;6.77;;;1.97;;
7675;SDS011;3880;51.464;-2.566;2022-11-09T04:24:49;5.37;;;1.50;;
7675;SDS011;3880;51.464;-2.566;2022-11-09T04:27:16;1.07;;;0.97;;
7675;SDS011;3880;51.464;-2.566;2022-11-09T04:29:43;6.53;;;1.20;;
7675;SDS011;3880;51.464;-2.566;2022-11-09T04:32:10;4.97;;;1.17;;
7675;SDS011;3880;51.464;-2.566;2022-11-09T04:34:37;1.83;;;1.20;;
7675;SDS011;3880;51.464;-2.566;2022-11-09T04:37:07;4.30;;;1.43;;
7675;SDS011;3880;51.464;-2.566;2022-11-09T04:39:34;7.80;;;2.13;;
7675;SDS011;3880;51.464;-2.566;2022-11-09T04:42:01;4.57;;;1.40;;
7675;SDS011;3880;51.464;-2.566;2022-11-09T04:44:28;5.03;;;2.80;;
7675;SDS011;3880;51.464;-2.566;2022-11-09T04:46:55;4.57;;;2.00;;
7675;SDS011;3880;51.464;-2.566;2022-11-09T04:49:23;3.63;;;1.80;;
7675;SDS011;3880;51.464;-2.566;2022-11-09T04:51:50;3.03;;;1.10;;
7675;SDS011;3880;51.464;-2.566;2022-11-09T04:54:18;2.70;;;1.50;;
7675;SDS011;3880;51.464;-2.566;2022-11-09T04:56:45;7.03;;;1.33;;
7675;SDS011;3880;51.464;-2.566;2022-11-09T04:59:12;6.33;;;1.20;;
7675;SDS011;3880;51.464;-2.566;2022-11-09T05:01:39;5.13;;;1.53;;
7675;SDS011;3880;51.464;-2.566;2022-11-09T05:04:06;4.43;;;1.40;;
7675;SDS011;3880;51.464;-2.566;2022-11-09T05:06:33;1.93;;;1.20;;
7675;SDS011;3880;51.464;-2.566;2022-11-09T05:09:00;5.03;;;1.53;;
7675;SDS011;3880;51.464;-2.566;2022-11-09T05:11:31;6.10;;;1.50;;
7675;SDS011;3880;51.464;-2.566;2022-11-09T05:13:59;4.77;;;1.30;;
7675;SDS011;3880;51.464;-2.566;2022-11-09T05:16:26;1.63;;;1.10;;
7675;SDS011;3880;51.464;-2.566;2022-11-09T05:18:54;3.27;;;1.50;;
7675;SDS011;3880;51.464;-2.566;2022-11-09T05:21:21;2.87;;;1.20;;
7675;SDS011;3880;51.464;-2.566;2022-11-09T05:23:48;4.07;;;1.47;;
7675;SDS011;3880;51.464;-2.566;2022-11-09T05:26:24;2.53;;;1.40;;
7675;SDS011;3880;51.464;-2.566;2022-11-09T05:28:54;3.57;;;1.30;;
7675;SDS011;3880;51.464;-2.566;2022-11-09T05:31:21;3.83;;;1.30;;
7675;SDS011;3880;51.464;-2.566;2022-11-09T05:33:49;7.17;;;1.63;;
7675;SDS011;3880;51.464;-2.566;2022-11-09T05:36:16;6.00;;;1.33;;
7675;SDS011;3880;51.464;-2.566;2022-11-09T05:38:46;3.00;;;1.13;;
7675;SDS011;3880;51.464;-2.566;2022-11-09T05:41:14;3.87;;;1.30;;
7675;SDS011;3880;51.464;-2.566;2022-11-09T05:43:42;2.77;;;1.10;;
7675;SDS011;3880;51.464;-2.566;2022-11-09T05:46:11;6.20;;;1.47;;
7675;SDS011;3880;51.464;-2.566;2022-11-09T05:48:39;3.07;;;1.57;;
7675;SDS011;3880;51.464;-2.566;2022-11-09T05:51:07;1.57;;;1.37;;
7675;SDS011;3880;51.464;-2.566;2022-11-09T05:53:36;4.03;;;1.33;;
7675;SDS011;3880;51.464;-2.566;2022-11-09T05:56:03;1.83;;;1.20;;
7675;SDS011;3880;51.464;-2.566;2022-11-09T05:58:31;5.97;;;1.83;;
7675;SDS011;3880;51.464;-2.566;2022-11-09T06:01:01;6.00;;;1.57;;
7675;SDS011;3880;51.464;-2.566;2022-11-09T06:03:30;5.17;;;1.30;;
7675;SDS011;3880;51.464;-2.566;2022-11-09T06:06:01;1.93;;;1.30;;
7675;SDS011;3880;51.464;-2.566;2022-11-09T06:08:29;4.67;;;1.30;;
7675;SDS011;3880;51.464;-2.566;2022-11-09T06:10:57;7.17;;;1.50;;
7675;SDS011;3880;51.464;-2.566;2022-11-09T06:13:25;1.67;;;1.47;;
7675;SDS011;3880;51.464;-2.566;2022-11-09T06:15:53;2.93;;;1.80;;
7675;SDS011;3880;51.464;-2.566;2022-11-09T06:18:21;6.03;;;1.70;;
7675;SDS011;3880;51.464;-2.566;2022-11-09T06:20:51;5.97;;;2.00;;
7675;SDS011;3880;51.464;-2.566;2022-11-09T06:23:19;2.23;;;1.20;;
7675;SDS011;3880;51.464;-2.566;2022-11-09T06:25:50;7.83;;;2.40;;
7675;SDS011;3880;51.464;-2.566;2022-11-09T06:28:20;3.63;;;1.27;;
7675;SDS011;3880;51.464;-2.566;2022-11-09T06:30:47;4.77;;;1.50;;
7675;SDS011;3880;51.464;-2.566;2022-11-09T06:33:14;4.47;;;1.43;;
7675;SDS011;3880;51.464;-2.566;2022-11-09T06:35:41;6.63;;;1.40;;
7675;SDS011;3880;51.464;-2.566;2022-11-09T06:38:09;4.63;;;1.87;;
7675;SDS011;3880;51.464;-2.566;2022-11-09T06:40:37;4.23;;;1.33;;
7675;SDS011;3880;51.464;-2.566;2022-11-09T06:43:04;5.30;;;1.70;;
7675;SDS011;3880;51.464;-2.566;2022-11-09T06:45:31;5.10;;;1.90;;
7675;SDS011;3880;51.464;-2.566;2022-11-09T06:48:00;4.40;;;1.60;;
7675;SDS011;3880;51.464;-2.566;2022-11-09T06:50:29;3.77;;;2.03;;
7675;SDS011;3880;51.464;-2.566;2022-11-09T06:52:58;4.17;;;1.60;;
7675;SDS011;3880;51.464;-2.566;2022-11-09T06:55:28;3.67;;;1.53;;
7675;SDS011;3880;51.464;-2.566;2022-11-09T06:57:56;6.67;;;1.83;;
7675;SDS011;3880;51.464;-2.566;2022-11-09T07:00:24;5.77;;;1.60;;
7675;SDS011;3880;51.464;-2.566;2022-11-09T07:02:52;5.77;;;1.60;;
7675;SDS011;3880;51.464;-2.566;2022-11-09T07:05:20;5.23;;;1.93;;
7675;SDS011;3880;51.464;-2.566;2022-11-09T07:07:47;1.77;;;1.37;;
7675;SDS011;3880;51.464;-2.566;2022-11-09T07:10:14;6.80;;;1.90;;
7675;SDS011;3880;51.464;-2.566;2022-11-09T07:12:43;4.37;;;1.20;;
7675;SDS011;3880;51.464;-2.566;2022-11-09T07:15:12;5.30;;;1.50;;
7675;SDS011;3880;51.464;-2.566;2022-11-09T07:17:39;8.10;;;2.07;;
7675;SDS011;3880;51.464;-2.566;2022-11-09T07:20:07;3.27;;;1.80;;
7675;SDS011;3880;51.464;-2.566;2022-11-09T07:22:35;12.30;;;1.87;;
7675;SDS011;3880;51.464;-2.566;2022-11-09T07:25:04;5.47;;;1.73;;
7675;SDS011;3880;51.464;-2.566;2022-11-09T07:27:32;4.60;;;1.27;;
7675;SDS011;3880;51.464;-2.566;2022-11-09T07:30:00;2.70;;;1.40;;
7675;SDS011;3880;51.464;-2.566;2022-11-09T07:32:28;3.53;;;1.70;;
7675;SDS011;3880;51.464;-2.566;2022-11-09T07:34:58;5.20;;;1.60;;
7675;SDS011;3880;51.464;-2.566;2022-11-09T07:37:25;3.80;;;1.70;;
7675;SDS011;3880;51.464;-2.566;2022-11-09T07:39:52;5.73;;;1.63;;
7675;SDS011;3880;51.464;-2.566;2022-11-09T07:42:19;10.63;;;2.30;;
7675;SDS011;3880;51.464;-2.566;2022-11-09T07:44:49;4.03;;;1.80;;
7675;SDS011;3880;51.464;-2.566;2022-11-09T07:47:18;8.20;;;1.60;;
7675;SDS011;3880;51.464;-2.566;2022-11-09T07:49:45;5.27;;;1.97;;
7675;SDS011;3880;51.464;-2.566;2022-11-09T07:52:12;7.40;;;2.10;;
7675;SDS011;3880;51.464;-2.566;2022-11-09T07:54:39;6.43;;;1.37;;
7675;SDS011;3880;51.464;-2.566;2022-11-09T07:57:06;8.33;;;1.60;;
7675;SDS011;3880;51.464;-2.566;2022-11-09T07:59:34;5.47;;;1.90;;
7675;SDS011;3880;51.464;-2.566;2022-11-09T08:02:01;8.33;;;2.10;;
7675;SDS011;3880;51.464;-2.566;2022-11-09T08:04:30;7.70;;;2.13;;
7675;SDS011;3880;51.464;-2.566;2022-11-09T08:06:57;8.93;;;1.93;;
7675;SDS011;3880;51.464;-2.566;2022-11-09T08:09:24;7.80;;;2.50;;
7675;SDS011;3880;51.464;-2.566;2022-11-09T08:11:51;4.70;;;1.90;;
7675;SDS011;3880;51.464;-2.566;2022-11-09T08:14:18;8.50;;;2.63;;
7675;SDS011;3880;51.464;-2.566;2022-11-09T08:16:48;8.83;;;2.53;;
7675;SDS011;3880;51.464;-2.566;2022-11-09T08:19:16;8.60;;;1.80;;
7675;SDS011;3880;51.464;-2.566;2022-11-09T08:21:45;15.93;;;2.87;;
7675;SDS011;3880;51.464;-2.566;2022-11-09T08:24:12;4.53;;;2.27;;
7675;SDS011;3880;51.464;-2.566;2022-11-09T08:26:39;13.23;;;3.90;;
7675;SDS011;3880;51.464;-2.566;2022-11-09T08:29:06;14.17;;;3.57;;
7675;SDS011;3880;51.464;-2.566;2022-11-09T08:31:34;13.00;;;3.03;;
7675;SDS011;3880;51.464;-2.566;2022-11-09T08:34:01;5.80;;;2.47;;
7675;SDS011;3880;51.464;-2.566;2022-11-09T08:36:28;7.80;;;2.23;;
7675;SDS011;3880;51.464;-2.566;2022-11-09T08:38:56;5.47;;;2.27;;
7675;SDS011;3880;51.464;-2.566;2022-11-09T08:41:24;10.00;;;2.33;;
7675;SDS011;3880;51.464;-2.566;2022-11-09T08:43:51;8.20;;;2.33;;
7675;SDS011;3880;51.464;-2.566;2022-11-09T08:46:18;7.37;;;2.57;;
7675;SDS011;3880;51.464;-2.566;2022-11-09T08:48:45;14.60;;;8.27;;
7675;SDS011;3880;51.464;-2.566;2022-11-09T08:51:15;11.47;;;3.63;;
7675;SDS011;3880;51.464;-2.566;2022-11-09T08:53:42;9.17;;;6.60;;
7675;SDS011;3880;51.464;-2.566;2022-11-09T08:56:11;13.67;;;8.43;;
7675;SDS011;3880;51.464;-2.566;2022-11-09T08:58:42;10.40;;;4.60;;
7675;SDS011;3880;51.464;-2.566;2022-11-09T09:01:10;11.00;;;2.73;;
7675;SDS011;3880;51.464;-2.566;2022-11-09T09:03:37;9.17;;;2.77;;
7675;SDS011;3880;51.464;-2.566;2022-11-09T09:06:05;10.70;;;3.43;;
7675;SDS011;3880;51.464;-2.566;2022-11-09T09:08:33;7.40;;;2.20;;
7675;SDS011;3880;51.464;-2.566;2022-11-09T09:11:01;8.87;;;2.20;;
7675;SDS011;3880;51.464;-2.566;2022-11-09T09:13:30;10.40;;;3.17;;
7675;SDS011;3880;51.464;-2.566;2022-11-09T09:16:07;9.93;;;2.40;;
7675;SDS011;3880;51.464;-2.566;2022-11-09T09:18:34;7.27;;;2.70;;
7675;SDS011;3880;51.464;-2.566;2022-11-09T09:21:03;12.23;;;2.90;;
7675;SDS011;3880;51.464;-2.566;2022-11-09T09:23:31;8.43;;;3.23;;
7675;SDS011;3880;51.464;-2.566;2022-11-09T09:25:58;12.50;;;2.30;;
7675;SDS011;3880;51.464;-2.566;2022-11-09T09:28:26;14.33;;;3.57;;
7675;SDS011;3880;51.464;-2.566;2022-11-09T09:30:55;11.83;;;2.97;;
7675;SDS011;3880;51.464;-2.566;2022-11-09T09:33:23;14.50;;;2.70;;
7675;SDS011;3880;51.464;-2.566;2022-11-09T09:35:51;13.03;;;2.67;;
7675;SDS011;3880;51.464;-2.566;2022-11-09T09:38:21;12.73;;;2.83;;
7675;SDS011;3880;51.464;-2.566;2022-11-09T09:40:52;7.37;;;2.37;;
7675;SDS011;3880;51.464;-2.566;2022-11-09T09:43:24;9.67;;;2.17;;
7675;SDS011;3880;51.464;-2.566;2022-11-09T09:46:01;7.53;;;2.20;;
7675;SDS011;3880;51.464;-2.566;2022-11-09T09:48:34;11.80;;;2.43;;
7675;SDS011;3880;51.464;-2.566;2022-11-09T09:51:08;2.57;;;1.50;;
7675;SDS011;3880;51.464;-2.566;2022-11-09T09:53:42;6.77;;;2.13;;
7675;SDS011;3880;51.464;-2.566;2022-11-09T09:56:14;7.83;;;1.73;;
7675;SDS011;3880;51.464;-2.566;2022-11-09T09:58:44;6.33;;;2.00;;
7675;SDS011;3880;51.464;-2.566;2022-11-09T10:01:22;3.47;;;1.97;;
7675;SDS011;3880;51.464;-2.566;2022-11-09T10:03:53;6.47;;;1.63;;
7675;SDS011;3880;51.464;-2.566;2022-11-09T10:06:27;5.50;;;2.23;;
7675;SDS011;3880;51.464;-2.566;2022-11-09T10:09:05;8.30;;;2.37;;
7675;SDS011;3880;51.464;-2.566;2022-11-09T10:11:44;11.53;;;2.53;;
7675;SDS011;3880;51.464;-2.566;2022-11-09T10:14:23;8.10;;;1.90;;
7675;SDS011;3880;51.464;-2.566;2022-11-09T10:17:06;7.70;;;3.03;;
7675;SDS011;3880;51.464;-2.566;2022-11-09T10:19:45;12.40;;;2.47;;
7675;SDS011;3880;51.464;-2.566;2022-11-09T10:22:25;6.33;;;3.17;;
7675;SDS011;3880;51.464;-2.566;2022-11-09T10:25:05;15.73;;;3.90;;
7675;SDS011;3880;51.464;-2.566;2022-11-09T10:27:40;9.80;;;3.97;;
7675;SDS011;3880;51.464;-2.566;2022-11-09T10:30:12;8.30;;;2.47;;
7675;SDS011;3880;51.464;-2.566;2022-11-09T10:32:43;12.47;;;3.13;;
7675;SDS011;3880;51.464;-2.566;2022-11-09T10:35:14;8.23;;;2.50;;
7675;SDS011;3880;51.464;-2.566;2022-11-09T10:37:45;16.73;;;5.03;;
7675;SDS011;3880;51.464;-2.566;2022-11-09T10:40:15;10.43;;;3.63;;
7675;SDS011;3880;51.464;-2.566;2022-11-09T10:42:46;13.20;;;3.50;;
7675;SDS011;3880;51.464;-2.566;2022-11-09T10:45:27;17.77;;;5.10;;
7675;SDS011;3880;51.464;-2.566;2022-11-09T10:47:59;11.70;;;3.73;;
7675;SDS011;3880;51.464;-2.566;2022-11-09T10:50:29;13.13;;;3.07;;
7675;SDS011;3880;51.464;-2.566;2022-11-09T10:53:08;12.70;;;2.97;;
7675;SDS011;3880;51.464;-2.566;2022-11-09T10:55:51;11.70;;;3.17;;
7675;SDS011;3880;51.464;-2.566;2022-11-09T10:58:22;21.40;;;4.73;;
7675;SDS011;3880;51.464;-2.566;2022-11-09T11:01:00;27.70;;;9.30;;
7675;SDS011;3880;51.464;-2.566;2022-11-09T11:03:32;16.20;;;3.10;;
7675;SDS011;3880;51.464;-2.566;2022-11-09T11:06:03;7.97;;;2.53;;
7675;SDS011;3880;51.464;-2.566;2022-11-09T11:08:34;15.67;;;3.37;;
7675;SDS011;3880;51.464;-2.566;2022-11-09T11:11:07;12.40;;;4.30;;
7675;SDS011;3880;51.464;-2.566;2022-11-09T11:13:40;7.03;;;3.47;;
7675;SDS011;3880;51.464;-2.566;2022-11-09T11:16:24;9.23;;;2.73;;
7675;SDS011;3880;51.464;-2.566;2022-11-09T11:18:55;11.77;;;3.47;;
7675;SDS011;3880;51.464;-2.566;2022-11-09T11:21:23;5.17;;;2.37;;
7675;SDS011;3880;51.464;-2.566;2022-11-09T11:26:48;4.60;;;1.90;;
7675;SDS011;3880;51.464;-2.566;2022-11-09T11:29:30;10.07;;;2.50;;
7675;SDS011;3880;51.464;-2.566;2022-11-09T11:32:06;7.23;;;2.67;;
7675;SDS011;3880;51.464;-2.566;2022-11-09T11:34:36;10.33;;;2.50;;
7675;SDS011;3880;51.464;-2.566;2022-11-09T11:37:18;9.50;;;2.83;;
7675;SDS011;3880;51.464;-2.566;2022-11-09T11:40:03;10.27;;;3.07;;
7675;SDS011;3880;51.464;-2.566;2022-11-09T11:42:43;13.97;;;2.23;;
7675;SDS011;3880;51.464;-2.566;2022-11-09T11:45:39;8.97;;;2.67;;
7675;SDS011;3880;51.464;-2.566;2022-11-09T11:48:21;7.77;;;2.37;;
7675;SDS011;3880;51.464;-2.566;2022-11-09T11:51:05;14.37;;;3.23;;
7675;SDS011;3880;51.464;-2.566;2022-11-09T11:53:46;5.07;;;2.33;;
7675;SDS011;3880;51.464;-2.566;2022-11-09T11:56:30;8.53;;;2.43;;
7675;SDS011;3880;51.464;-2.566;2022-11-09T11:59:05;7.40;;;2.00;;
7675;SDS011;3880;51.464;-2.566;2022-11-09T12:01:58;9.43;;;2.40;;
7675;SDS011;3880;51.464;-2.566;2022-11-09T12:07:32;8.40;;;2.30;;
7675;SDS011;3880;51.464;-2.566;2022-11-09T12:10:17;13.10;;;2.93;;
7675;SDS011;3880;51.464;-2.566;2022-11-09T12:12:56;6.57;;;2.97;;
7675;SDS011;3880;51.464;-2.566;2022-11-09T12:15:34;7.57;;;2.63;;
7675;SDS011;3880;51.464;-2.566;2022-11-09T12:18:15;4.13;;;2.40;;
7675;SDS011;3880;51.464;-2.566;2022-11-09T12:20:52;9.17;;;2.70;;
7675;SDS011;3880;51.464;-2.566;2022-11-09T12:23:29;7.47;;;1.90;;
7675;SDS011;3880;51.464;-2.566;2022-11-09T12:26:10;5.83;;;2.30;;
7675;SDS011;3880;51.464;-2.566;2022-11-09T12:28:56;8.67;;;2.30;;
7675;SDS011;3880;51.464;-2.566;2022-11-09T12:31:34;6.40;;;2.60;;
7675;SDS011;3880;51.464;-2.566;2022-11-09T12:34:11;8.97;;;2.67;;
7675;SDS011;3880;51.464;-2.566;2022-11-09T12:36:46;13.80;;;3.17;;
7675;SDS011;3880;51.464;-2.566;2022-11-09T12:39:20;8.90;;;2.47;;
7675;SDS011;3880;51.464;-2.566;2022-11-09T12:41:52;11.87;;;4.63;;
7675;SDS011;3880;51.464;-2.566;2022-11-09T12:44:26;10.40;;;4.17;;
7675;SDS011;3880;51.464;-2.566;2022-11-09T12:46:58;10.93;;;3.67;;
7675;SDS011;3880;51.464;-2.566;2022-11-09T12:49:33;5.70;;;2.33;;
7675;SDS011;3880;51.464;-2.566;2022-11-09T12:52:02;4.60;;;1.93;;
7675;SDS011;3880;51.464;-2.566;2022-11-09T12:54:32;6.20;;;2.03;;
7675;SDS011;3880;51.464;-2.566;2022-11-09T12:57:01;11.90;;;3.03;;
7675;SDS011;3880;51.464;-2.566;2022-11-09T12:59:32;12.43;;;3.47;;
7675;SDS011;3880;51.464;-2.566;2022-11-09T13:02:02;4.63;;;2.47;;
7675;SDS011;3880;51.464;-2.566;2022-11-09T13:04:30;10.17;;;3.50;;
7675;SDS011;3880;51.464;-2.566;2022-11-09T13:09:56;7.70;;;2.90;;
7675;SDS011;3880;51.464;-2.566;2022-11-09T13:12:34;11.17;;;3.93;;
7675;SDS011;3880;51.464;-2.566;2022-11-09T13:15:20;6.50;;;2.40;;
7675;SDS011;3880;51.464;-2.566;2022-11-09T13:17:52;6.67;;;2.17;;
7675;SDS011;3880;51.464;-2.566;2022-11-09T13:20:40;8.13;;;2.27;;
7675;SDS011;3880;51.464;-2.566;2022-11-09T13:23:28;6.50;;;2.23;;
7675;SDS011;3880;51.464;-2.566;2022-11-09T13:25:58;6.80;;;2.40;;
7675;SDS011;3880;51.464;-2.566;2022-11-09T13:34:48;9.50;;;2.53;;
7675;SDS011;3880;51.464;-2.566;2022-11-09T13:37:35;4.87;;;2.20;;
7675;SDS011;3880;51.464;-2.566;2022-11-09T13:43:12;9.47;;;4.67;;
7675;SDS011;3880;51.464;-2.566;2022-11-09T13:45:41;5.80;;;2.77;;
7675;SDS011;3880;51.464;-2.566;2022-11-09T13:48:21;7.47;;;2.40;;
7675;SDS011;3880;51.464;-2.566;2022-11-09T13:51:09;6.13;;;2.30;;
7675;SDS011;3880;51.464;-2.566;2022-11-09T13:53:50;6.63;;;2.27;;
7675;SDS011;3880;51.464;-2.566;2022-11-09T13:56:25;5.80;;;1.73;;
7675;SDS011;3880;51.464;-2.566;2022-11-09T13:59:01;6.63;;;2.00;;
7675;SDS011;3880;51.464;-2.566;2022-11-09T14:01:33;7.27;;;2.43;;
7675;SDS011;3880;51.464;-2.566;2022-11-09T14:04:01;8.83;;;2.00;;
7675;SDS011;3880;51.464;-2.566;2022-11-09T14:06:29;7.27;;;2.07;;
7675;SDS011;3880;51.464;-2.566;2022-11-09T14:08:58;11.00;;;2.93;;
7675;SDS011;3880;51.464;-2.566;2022-11-09T14:14:26;8.47;;;1.93;;
7675;SDS011;3880;51.464;-2.566;2022-11-09T14:17:15;10.60;;;2.13;;
7675;SDS011;3880;51.464;-2.566;2022-11-09T14:19:50;7.87;;;2.47;;
7675;SDS011;3880;51.464;-2.566;2022-11-09T14:22:24;6.57;;;1.90;;
7675;SDS011;3880;51.464;-2.566;2022-11-09T14:24:54;9.07;;;2.10;;
7675;SDS011;3880;51.464;-2.566;2022-11-09T14:27:21;9.00;;;2.17;;
7675;SDS011;3880;51.464;-2.566;2022-11-09T14:29:51;6.10;;;2.97;;
7675;SDS011;3880;51.464;-2.566;2022-11-09T14:32:27;9.90;;;2.43;;
7675;SDS011;3880;51.464;-2.566;2022-11-09T14:35:09;11.30;;;2.17;;
7675;SDS011;3880;51.464;-2.566;2022-11-09T14:37:43;23.53;;;4.47;;
7675;SDS011;3880;51.464;-2.566;2022-11-09T14:40:18;12.30;;;2.50;;
7675;SDS011;3880;51.464;-2.566;2022-11-09T14:42:48;9.17;;;2.33;;
7675;SDS011;3880;51.464;-2.566;2022-11-09T14:45:19;8.97;;;2.67;;
7675;SDS011;3880;51.464;-2.566;2022-11-09T14:47:47;7.50;;;2.23;;
7675;SDS011;3880;51.464;-2.566;2022-11-09T14:50:19;9.57;;;2.53;;
7675;SDS011;3880;51.464;-2.566;2022-11-09T14:52:48;10.67;;;2.63;;
7675;SDS011;3880;51.464;-2.566;2022-11-09T14:55:17;8.43;;;2.57;;
7675;SDS011;3880;51.464;-2.566;2022-11-09T14:57:45;7.07;;;1.80;;
7675;SDS011;3880;51.464;-2.566;2022-11-09T15:00:22;10.47;;;4.03;;
7675;SDS011;3880;51.464;-2.566;2022-11-09T15:02:52;10.83;;;3.43;;
7675;SDS011;3880;51.464;-2.566;2022-11-09T15:05:28;16.10;;;2.57;;
7675;SDS011;3880;51.464;-2.566;2022-11-09T15:07:57;11.23;;;2.80;;
7675;SDS011;3880;51.464;-2.566;2022-11-09T15:10:31;8.57;;;2.40;;
7675;SDS011;3880;51.464;-2.566;2022-11-09T15:12:59;12.07;;;3.37;;
7675;SDS011;3880;51.464;-2.566;2022-11-09T15:15:30;15.43;;;3.97;;
7675;SDS011;3880;51.464;-2.566;2022-11-09T15:18:00;28.03;;;7.20;;
7675;SDS011;3880;51.464;-2.566;2022-11-09T15:20:29;22.70;;;7.53;;
7675;SDS011;3880;51.464;-2.566;2022-11-09T15:22:58;42.30;;;14.43;;
7675;SDS011;3880;51.464;-2.566;2022-11-09T15:25:29;13.60;;;3.40;;
7675;SDS011;3880;51.464;-2.566;2022-11-09T15:27:59;20.30;;;4.67;;
7675;SDS011;3880;51.464;-2.566;2022-11-09T15:30:45;12.93;;;3.90;;
7675;SDS011;3880;51.464;-2.566;2022-11-09T15:33:17;12.23;;;3.53;;
7675;SDS011;3880;51.464;-2.566;2022-11-09T15:35:49;16.47;;;3.67;;